Time;durP1;ratioP1;P1;durP2;ratioP2;P2;SDS_P1;SDS_P2;PMS_P1;PMS_P2;Temp;Humidity;BMP_temperature;BMP_pressure;BME280_temperature;BME280_humidity;BME280_pressure;Samples;Min_cycle;Max_cycle;Signal;HPM_P1;HPM_P2
2021/04/08 00:01:33;;;;;;;5.03;2.42;;;8.40;34.10;;;;;;5053278;28;20097;-67
2021/04/08 00:03:59;;;;;;;4.72;1.98;;;8.40;34.40;;;;;;5053685;28;20060;-70
2021/04/08 00:06:25;;;;;;;5.20;1.92;;;8.40;34.40;;;;;;5053133;28;20521;-67
2021/04/08 00:08:51;;;;;;;4.07;2.10;;;8.40;34.30;;;;;;5053442;28;20029;-69
2021/04/08 00:11:16;;;;;;;5.30;2.35;;;8.30;34.30;;;;;;5053242;28;20108;-70
2021/04/08 00:13:42;;;;;;;3.65;2.00;;;8.20;34.40;;;;;;5053278;28;20021;-70
2021/04/08 00:16:08;;;;;;;4.15;2.03;;;8.20;34.70;;;;;;5053582;28;20385;-70
2021/04/08 00:18:34;;;;;;;4.80;2.20;;;8.10;34.60;;;;;;5053186;28;20036;-67
2021/04/08 00:21:00;;;;;;;7.65;2.70;;;8.10;34.90;;;;;;5052787;28;20033;-69
2021/04/08 00:23:26;;;;;;;5.10;2.70;;;8.00;34.80;;;;;;5053305;28;20083;-70
2021/04/08 00:25:51;;;;;;;4.55;2.33;;;7.90;34.80;;;;;;5051658;28;20041;-70
2021/04/08 00:28:17;;;;;;;5.75;2.00;;;7.80;34.90;;;;;;5053033;28;20025;-68
2021/04/08 00:30:43;;;;;;;3.85;2.00;;;7.60;34.90;;;;;;5052985;28;20029;-68
2021/04/08 00:33:13;;;;;;;4.35;2.13;;;7.40;34.70;;;;;;5053134;28;20029;-68
2021/04/08 00:35:39;;;;;;;4.20;2.13;;;7.30;34.80;;;;;;5053249;28;20070;-70
2021/04/08 00:38:05;;;;;;;4.13;2.00;;;7.20;35.00;;;;;;5053201;28;20021;-67
2021/04/08 00:40:32;;;;;;;4.75;2.10;;;7.00;35.00;;;;;;5052956;28;20024;-68
2021/04/08 00:42:57;;;;;;;5.80;2.47;;;7.00;35.20;;;;;;5052895;28;20509;-68
2021/04/08 00:45:23;;;;;;;6.20;1.98;;;7.00;35.30;;;;;;5052856;28;20025;-67
2021/04/08 00:47:49;;;;;;;6.28;2.30;;;6.90;35.30;;;;;;5052949;28;20095;-67
2021/04/08 00:50:16;;;;;;;4.47;2.28;;;6.90;35.50;;;;;;5052998;28;20055;-68
2021/04/08 00:52:50;;;;;;;4.63;2.13;;;6.90;35.50;;;;;;5053063;28;20029;-69
2021/04/08 00:55:18;;;;;;;3.90;2.22;;;6.80;35.20;;;;;;5052776;28;20025;-69
2021/04/08 00:57:43;;;;;;;4.63;2.33;;;6.80;35.40;;;;;;5052792;28;20021;-70
2021/04/08 01:00:11;;;;;;;6.97;2.22;;;6.80;35.80;;;;;;5053017;28;20035;-68
2021/04/08 01:02:37;;;;;;;4.68;2.17;;;6.90;36.10;;;;;;5051453;28;20067;-70
2021/04/08 01:05:04;;;;;;;5.22;2.60;;;6.90;35.90;;;;;;5053912;28;20021;-69
2021/04/08 01:07:33;;;;;;;3.92;2.10;;;6.90;36.00;;;;;;5056417;28;20067;-68
2021/04/08 01:09:59;;;;;;;4.25;1.95;;;6.90;35.50;;;;;;5056460;28;20021;-68
2021/04/08 01:12:25;;;;;;;5.47;2.17;;;6.90;35.80;;;;;;5056873;28;20382;-69
2021/04/08 01:14:51;;;;;;;4.03;2.22;;;7.00;36.00;;;;;;5056387;28;20473;-67
2021/04/08 01:17:29;;;;;;;3.72;2.05;;;7.10;35.70;;;;;;5056429;28;20465;-68
2021/04/08 01:20:17;;;;;;;4.97;2.28;;;7.00;36.10;;;;;;5055136;28;20112;-70
2021/04/08 01:23:15;;;;;;;4.15;2.17;;;7.00;36.10;;;;;;5056089;28;20098;-68
2021/04/08 01:26:10;;;;;;;3.90;2.05;;;7.00;35.30;;;;;;5056291;28;20021;-67
2021/04/08 01:28:42;;;;;;;6.63;2.65;;;6.90;34.80;;;;;;5055936;28;20060;-69
2021/04/08 01:31:14;;;;;;;4.90;2.33;;;7.00;36.30;;;;;;5056128;28;20025;-68
2021/04/08 01:33:49;;;;;;;4.22;2.13;;;7.10;35.50;;;;;;5056200;28;20033;-68
2021/04/08 01:36:21;;;;;;;4.90;2.30;;;7.20;36.00;;;;;;5056074;28;20466;-69
2021/04/08 01:38:50;;;;;;;4.60;2.15;;;7.10;35.20;;;;;;5056158;28;20112;-68
2021/04/08 01:41:19;;;;;;;4.78;2.55;;;7.00;35.40;;;;;;5055888;28;20025;-69
2021/04/08 01:43:46;;;;;;;9.88;4.68;;;7.00;35.30;;;;;;5055702;28;20040;-67
2021/04/08 01:46:14;;;;;;;6.22;2.90;;;6.90;35.10;;;;;;5055839;28;20063;-70
2021/04/08 01:48:43;;;;;;;5.28;2.53;;;7.00;35.50;;;;;;5055833;28;20059;-67
2021/04/08 01:51:10;;;;;;;5.18;2.53;;;7.00;35.50;;;;;;5055742;28;20032;-67
2021/04/08 01:53:40;;;;;;;14.18;2.60;;;7.00;35.60;;;;;;5055633;28;20036;-67
2021/04/08 01:56:08;;;;;;;4.57;2.33;;;7.10;35.70;;;;;;5054150;28;20473;-68
2021/04/08 01:58:34;;;;;;;5.43;2.40;;;7.30;36.00;;;;;;5055529;28;20024;-67
2021/04/08 02:01:00;;;;;;;8.60;2.60;;;7.40;36.10;;;;;;5055511;28;20493;-68
2021/04/08 02:03:27;;;;;;;4.65;2.20;;;7.40;35.60;;;;;;5055517;28;20040;-69
2021/04/08 02:05:54;;;;;;;5.70;2.17;;;7.40;35.50;;;;;;5055503;28;20041;-68
2021/04/08 02:08:20;;;;;;;4.13;2.30;;;7.40;35.70;;;;;;5055485;28;20025;-68
2021/04/08 02:10:46;;;;;;;3.60;2.05;;;7.50;35.90;;;;;;5055204;28;20433;-67
2021/04/08 02:13:14;;;;;;;4.68;2.17;;;7.50;36.00;;;;;;5055352;28;20028;-69
2021/04/08 02:15:43;;;;;;;5.15;3.00;;;7.50;35.70;;;;;;5054993;28;20025;-68
2021/04/08 02:18:14;;;;;;;5.40;2.50;;;7.30;35.70;;;;;;5055397;28;20032;-67
2021/04/08 02:20:41;;;;;;;4.57;2.40;;;7.30;35.80;;;;;;5055161;28;20064;-67
2021/04/08 02:23:07;;;;;;;5.90;2.63;;;7.30;36.00;;;;;;5055168;28;20044;-67
2021/04/08 02:25:38;;;;;;;4.65;2.40;;;7.20;35.60;;;;;;5055018;28;20083;-68
2021/04/08 02:28:07;;;;;;;5.55;2.58;;;7.20;35.70;;;;;;5055207;28;20025;-68
2021/04/08 02:30:46;;;;;;;6.20;2.35;;;7.10;35.90;;;;;;5054908;28;20540;-67
2021/04/08 02:33:17;;;;;;;4.38;2.33;;;7.10;36.00;;;;;;5054907;28;20017;-67
2021/04/08 02:35:43;;;;;;;4.95;2.50;;;7.10;36.40;;;;;;5055089;28;20027;-68
2021/04/08 02:38:08;;;;;;;5.22;2.33;;;7.10;35.70;;;;;;5054826;28;20181;-67
2021/04/08 02:40:34;;;;;;;5.97;2.83;;;7.10;35.70;;;;;;5054668;28;20082;-67
2021/04/08 02:43:00;;;;;;;5.93;2.45;;;7.20;36.50;;;;;;5054838;28;20420;-68
2021/04/08 02:45:25;;;;;;;5.90;2.42;;;7.20;36.50;;;;;;5054697;28;20082;-69
2021/04/08 02:47:51;;;;;;;5.28;2.33;;;7.20;36.20;;;;;;5054702;28;20037;-68
2021/04/08 02:50:17;;;;;;;5.72;2.30;;;7.30;36.50;;;;;;5055010;28;20033;-68
2021/04/08 02:53:02;;;;;;;3.70;2.15;;;7.40;36.10;;;;;;5054560;28;20086;-67
2021/04/08 02:55:54;;;;;;;4.28;2.28;;;7.40;36.70;;;;;;5054763;28;20032;-69
2021/04/08 02:58:22;;;;;;;8.52;2.60;;;7.30;36.10;;;;;;5054454;28;20062;-66
2021/04/08 03:01:18;;;;;;;3.95;2.08;;;7.30;36.30;;;;;;5054670;28;20035;-68
2021/04/08 03:03:55;;;;;;;4.97;2.53;;;7.30;36.30;;;;;;5041986;28;20052;-68
2021/04/08 03:06:22;;;;;;;7.43;2.40;;;7.30;36.10;;;;;;5054238;28;20037;-67
2021/04/08 03:08:55;;;;;;;6.35;2.75;;;7.20;36.10;;;;;;5054626;28;20135;-68
2021/04/08 03:11:27;;;;;;;6.47;2.60;;;7.10;36.50;;;;;;5054189;28;20033;-68
2021/04/08 03:13:58;;;;;;;4.93;2.38;;;7.10;36.50;;;;;;5054513;28;20044;-67
2021/04/08 03:16:27;;;;;;;5.57;2.47;;;7.10;36.40;;;;;;5054240;28;20025;-68
2021/04/08 03:18:57;;;;;;;4.63;2.30;;;7.10;36.60;;;;;;5054122;28;20025;-67
2021/04/08 03:21:25;;;;;;;4.63;2.20;;;7.10;36.40;;;;;;5053645;28;20037;-67
2021/04/08 03:23:53;;;;;;;6.75;2.70;;;7.10;36.50;;;;;;5054130;28;20352;-69
2021/04/08 03:26:21;;;;;;;7.22;3.00;;;7.00;36.40;;;;;;5053962;28;20044;-69
2021/04/08 03:28:47;;;;;;;6.07;2.70;;;6.90;36.20;;;;;;5053521;28;20021;-67
2021/04/08 03:31:13;;;;;;;5.50;2.13;;;6.90;36.40;;;;;;5053805;28;20025;-68
2021/04/08 03:33:40;;;;;;;6.80;2.80;;;7.00;36.90;;;;;;5053919;28;20025;-67
2021/04/08 03:36:07;;;;;;;6.70;2.38;;;7.10;36.50;;;;;;5053676;28;20032;-67
2021/04/08 03:38:33;;;;;;;5.50;2.83;;;7.10;36.40;;;;;;5054130;28;20161;-66
2021/04/08 03:41:00;;;;;;;4.57;2.50;;;7.00;36.10;;;;;;5053604;28;20135;-67
2021/04/08 03:43:26;;;;;;;8.38;2.55;;;7.00;36.40;;;;;;5052521;28;20033;-68
2021/04/08 03:45:57;;;;;;;7.13;2.70;;;6.90;36.20;;;;;;5053653;28;20036;-68
2021/04/08 03:48:24;;;;;;;4.53;2.47;;;6.90;36.20;;;;;;5053930;28;20033;-67
2021/04/08 03:50:50;;;;;;;6.30;2.80;;;6.90;36.60;;;;;;5053559;28;20033;-68
2021/04/08 03:53:17;;;;;;;8.18;3.00;;;7.00;36.50;;;;;;5053814;28;20024;-71
2021/04/08 03:55:45;;;;;;;6.93;2.60;;;6.90;36.50;;;;;;5053653;28;20386;-69
2021/04/08 03:58:11;;;;;;;5.47;3.10;;;7.00;36.70;;;;;;5053456;28;20021;-68
2021/04/08 04:00:39;;;;;;;5.32;2.63;;;7.10;36.50;;;;;;5053651;28;20032;-67
2021/04/08 04:03:08;;;;;;;6.57;2.88;;;7.20;36.50;;;;;;5053351;28;20025;-67
2021/04/08 04:05:34;;;;;;;7.13;2.95;;;7.10;36.50;;;;;;5053458;28;20063;-68
2021/04/08 04:08:01;;;;;;;5.22;2.65;;;7.20;36.60;;;;;;5053405;28;20029;-69
2021/04/08 04:10:27;;;;;;;6.57;3.20;;;7.20;36.50;;;;;;5053375;28;20025;-67
2021/04/08 04:12:55;;;;;;;6.25;2.75;;;7.00;36.50;;;;;;5053197;28;20078;-69
2021/04/08 04:15:21;;;;;;;6.60;2.80;;;7.00;36.80;;;;;;5053107;28;20148;-68
2021/04/08 04:17:48;;;;;;;6.40;2.60;;;6.90;37.10;;;;;;5053414;28;20112;-69
2021/04/08 04:20:15;;;;;;;5.63;2.90;;;6.70;36.80;;;;;;5053348;28;20363;-68
2021/04/08 04:22:42;;;;;;;9.32;2.95;;;6.70;37.20;;;;;;5053199;28;20393;-68
2021/04/08 04:25:10;;;;;;;6.03;2.75;;;6.60;37.30;;;;;;5053230;28;20048;-67
2021/04/08 04:27:36;;;;;;;7.50;2.97;;;6.80;37.50;;;;;;5052994;28;20029;-67
2021/04/08 04:30:05;;;;;;;5.63;2.72;;;6.80;37.30;;;;;;5053147;28;20027;-68
2021/04/08 04:32:30;;;;;;;6.93;2.90;;;6.60;37.40;;;;;;5053508;28;20047;-69
2021/04/08 04:34:56;;;;;;;6.53;2.90;;;6.60;37.60;;;;;;5053490;28;20021;-71
2021/04/08 04:37:22;;;;;;;5.90;2.95;;;6.60;37.70;;;;;;5053301;28;20053;-67
2021/04/08 04:39:48;;;;;;;7.55;2.83;;;6.60;37.30;;;;;;5052630;28;20025;-68
2021/04/08 04:42:13;;;;;;;6.10;3.00;;;6.60;37.70;;;;;;5057090;28;20025;-68
2021/04/08 04:44:39;;;;;;;5.97;2.90;;;6.60;38.30;;;;;;5057143;28;20029;-67
2021/04/08 04:47:06;;;;;;;7.97;3.95;;;6.60;38.40;;;;;;5056902;28;20033;-68
2021/04/08 04:49:32;;;;;;;5.30;2.65;;;6.70;37.20;;;;;;5057117;28;20449;-68
2021/04/08 04:51:57;;;;;;;6.28;3.20;;;6.70;37.30;;;;;;5056934;28;20111;-67
2021/04/08 04:54:23;;;;;;;9.93;3.38;;;6.80;37.80;;;;;;5057036;28;20126;-67
2021/04/08 04:56:49;;;;;;;6.95;3.20;;;6.80;37.60;;;;;;5056873;28;20033;-71
2021/04/08 04:59:16;;;;;;;8.48;3.47;;;6.80;37.40;;;;;;5055630;28;20508;-67
2021/04/08 05:01:42;;;;;;;6.03;3.10;;;6.90;37.70;;;;;;5056612;28;20025;-69
2021/04/08 05:04:07;;;;;;;9.93;3.97;;;6.70;37.90;;;;;;5056672;28;20020;-68
2021/04/08 05:06:33;;;;;;;9.57;3.92;;;6.60;38.50;;;;;;5056657;28;20135;-68
2021/04/08 05:08:59;;;;;;;11.00;3.28;;;6.60;38.70;;;;;;5056662;28;20031;-68
2021/04/08 05:11:25;;;;;;;8.27;4.35;;;6.60;39.00;;;;;;5056553;28;20067;-67
2021/04/08 05:13:51;;;;;;;7.68;3.50;;;6.80;39.30;;;;;;5056489;28;20017;-68
2021/04/08 05:16:16;;;;;;;9.63;3.80;;;6.80;39.00;;;;;;5056804;28;20029;-67
2021/04/08 05:18:43;;;;;;;11.15;3.92;;;6.80;38.80;;;;;;5056412;28;20025;-68
2021/04/08 05:21:09;;;;;;;8.40;4.15;;;6.80;38.50;;;;;;5056527;28;20398;-68
2021/04/08 05:23:36;;;;;;;6.93;3.72;;;6.80;39.20;;;;;;5056446;28;20029;-69
2021/04/08 05:26:02;;;;;;;9.32;3.92;;;6.60;38.50;;;;;;5056672;28;20036;-68
2021/04/08 05:28:27;;;;;;;7.68;3.45;;;6.60;38.60;;;;;;5056929;28;20036;-69
2021/04/08 05:30:53;;;;;;;8.43;3.95;;;6.60;38.80;;;;;;5056792;28;20025;-69
2021/04/08 05:33:19;;;;;;;9.63;4.10;;;6.60;39.10;;;;;;5056842;28;20032;-69
2021/04/08 05:35:44;;;;;;;8.35;3.88;;;6.60;38.60;;;;;;5056653;28;20021;-70
2021/04/08 05:38:11;;;;;;;9.50;3.30;;;6.60;38.90;;;;;;5056193;28;20025;-69
2021/04/08 05:40:37;;;;;;;6.75;3.70;;;6.60;38.40;;;;;;5055791;28;20025;-68
2021/04/08 05:43:02;;;;;;;7.50;4.47;;;6.60;38.60;;;;;;5055856;28;20105;-71
2021/04/08 05:45:29;;;;;;;10.15;4.47;;;6.50;38.10;;;;;;5055608;28;20468;-71
2021/04/08 05:47:54;;;;;;;7.72;3.80;;;6.70;38.40;;;;;;5055423;28;20104;-68
2021/04/08 05:50:20;;;;;;;9.88;3.88;;;6.70;38.30;;;;;;5055131;28;20113;-67
2021/04/08 05:52:46;;;;;;;7.68;3.90;;;6.80;38.10;;;;;;5055532;28;20382;-69
2021/04/08 05:55:12;;;;;;;8.02;4.10;;;6.90;37.90;;;;;;5055654;28;20171;-69
2021/04/08 05:57:38;;;;;;;9.18;3.88;;;7.00;37.90;;;;;;5055592;28;20021;-71
2021/04/08 06:00:06;;;;;;;11.30;4.20;;;7.20;37.80;;;;;;5055405;28;20163;-70
2021/04/08 06:02:32;;;;;;;8.63;3.38;;;7.40;37.50;;;;;;5055619;28;20030;-69
2021/04/08 06:04:58;;;;;;;10.13;3.70;;;7.60;37.00;;;;;;5055343;28;20025;-68
2021/04/08 06:07:24;;;;;;;11.80;4.40;;;7.50;36.50;;;;;;5054851;28;20037;-70
2021/04/08 06:09:49;;;;;;;12.40;4.45;;;7.80;36.90;;;;;;5054788;28;20112;-69
2021/04/08 06:12:15;;;;;;;13.27;4.72;;;7.90;36.50;;;;;;5055081;28;20037;-68
2021/04/08 06:14:41;;;;;;;9.15;3.85;;;8.00;36.20;;;;;;5054997;28;20033;-70
2021/04/08 06:17:07;;;;;;;10.18;4.15;;;8.10;36.40;;;;;;5055035;28;20516;-73
2021/04/08 06:19:33;;;;;;;8.48;3.88;;;8.30;36.30;;;;;;5054939;28;20032;-68
2021/04/08 06:21:59;;;;;;;9.00;3.63;;;8.20;35.80;;;;;;5054724;28;20095;-68
2021/04/08 06:24:25;;;;;;;9.57;3.92;;;8.30;35.90;;;;;;5054916;28;20064;-70
2021/04/08 06:26:51;;;;;;;9.73;4.05;;;8.60;35.80;;;;;;5054678;28;20482;-69
2021/04/08 06:29:17;;;;;;;10.13;3.97;;;8.80;35.60;;;;;;5054774;28;20032;-71
2021/04/08 06:31:44;;;;;;;10.40;4.25;;;9.00;35.70;;;;;;5054608;28;20434;-73
2021/04/08 06:34:10;;;;;;;6.85;3.72;;;9.10;35.10;;;;;;5054350;28;20061;-70
2021/04/08 06:36:35;;;;;;;9.27;3.92;;;9.20;34.90;;;;;;5054615;28;20072;-71
2021/04/08 06:39:01;;;;;;;8.23;4.20;;;9.30;35.20;;;;;;5054608;28;20401;-69
2021/04/08 06:41:27;;;;;;;8.73;4.32;;;9.30;34.70;;;;;;5055009;28;20032;-72
2021/04/08 06:43:55;;;;;;;7.97;4.50;;;9.30;34.40;;;;;;5054508;28;20033;-71
2021/04/08 06:46:21;;;;;;;10.30;4.22;;;9.40;34.30;;;;;;5054223;28;20040;-71
2021/04/08 06:48:53;;;;;;;10.93;4.25;;;9.50;34.40;;;;;;5054456;28;20470;-72
2021/04/08 06:51:21;;;;;;;12.38;4.70;;;9.60;34.50;;;;;;5054489;28;20032;-70
2021/04/08 06:53:51;;;;;;;15.15;4.55;;;9.80;34.60;;;;;;5053307;28;20047;-70
2021/04/08 06:56:21;;;;;;;7.88;4.50;;;10.00;33.60;;;;;;5054322;28;20079;-72
2021/04/08 06:58:47;;;;;;;9.77;4.35;;;10.00;32.40;;;;;;5053142;28;20017;-68
2021/04/08 07:01:13;;;;;;;9.52;4.72;;;10.00;33.40;;;;;;5054195;28;20031;-68
2021/04/08 07:03:39;;;;;;;16.98;5.22;;;10.10;33.20;;;;;;5053622;28;20102;-69
2021/04/08 07:06:05;;;;;;;9.75;4.60;;;10.20;33.40;;;;;;5053872;28;20108;-70
2021/04/08 07:08:32;;;;;;;12.45;5.40;;;10.20;33.40;;;;;;5054157;28;20021;-71
2021/04/08 07:10:59;;;;;;;9.88;4.68;;;10.20;33.90;;;;;;5054087;28;20017;-70
2021/04/08 07:13:29;;;;;;;13.05;7.55;;;10.20;32.80;;;;;;5054177;28;20025;-69
2021/04/08 07:16:00;;;;;;;13.60;7.35;;;10.30;33.00;;;;;;5053979;28;20129;-69
2021/04/08 07:18:27;;;;;;;11.35;4.47;;;10.40;32.70;;;;;;5054286;28;20168;-69
2021/04/08 07:20:57;;;;;;;8.23;4.07;;;10.40;32.70;;;;;;5053788;28;20029;-69
2021/04/08 07:23:23;;;;;;;9.55;4.57;;;10.40;32.00;;;;;;5054076;28;20021;-68
2021/04/08 07:26:10;;;;;;;11.23;4.70;;;10.40;31.90;;;;;;5053685;28;20356;-70
2021/04/08 07:28:36;;;;;;;10.88;4.78;;;10.50;31.70;;;;;;5053680;28;20036;-69
2021/04/08 07:31:23;;;;;;;9.48;4.18;;;10.60;32.00;;;;;;5053691;28;20021;-70
2021/04/08 07:33:51;;;;;;;15.70;4.60;;;10.60;30.70;;;;;;5053786;28;20037;-69
2021/04/08 07:36:52;;;;;;;9.38;4.07;;;10.70;31.60;;;;;;5053936;28;20048;-68
2021/04/08 07:39:18;;;;;;;10.45;4.25;;;10.70;30.90;;;;;;5053568;28;20025;-69
2021/04/08 07:42:02;;;;;;;9.55;5.60;;;10.70;31.10;;;;;;5053646;28;20029;-68
2021/04/08 07:44:28;;;;;;;9.73;5.00;;;10.90;30.50;;;;;;5053871;28;20021;-68
2021/04/08 07:46:55;;;;;;;12.63;4.15;;;10.90;31.60;;;;;;5053124;28;20470;-70
2021/04/08 07:49:28;;;;;;;7.18;3.90;;;10.90;31.60;;;;;;5053232;28;20025;-69
2021/04/08 07:51:55;;;;;;;6.38;3.42;;;10.70;29.50;;;;;;5053572;28;20047;-68
2021/04/08 07:54:21;;;;;;;8.73;4.30;;;10.60;30.40;;;;;;5053405;28;20024;-69
2021/04/08 07:56:48;;;;;;;11.23;4.20;;;10.60;30.80;;;;;;5053479;28;20059;-69
2021/04/08 07:59:24;;;;;;;10.00;4.18;;;10.70;30.70;;;;;;5053109;28;20036;-68
2021/04/08 08:02:09;;;;;;;7.05;4.50;;;10.80;30.00;;;;;;5052934;28;20028;-71
2021/04/08 08:04:35;;;;;;;9.02;4.13;;;10.90;30.90;;;;;;5051459;28;20025;-70
2021/04/08 08:07:01;;;;;;;10.50;4.47;;;10.90;30.40;;;;;;5053293;28;20048;-69
2021/04/08 08:09:29;;;;;;;11.10;4.13;;;10.80;30.60;;;;;;5053108;28;20070;-70
2021/04/08 08:11:57;;;;;;;10.52;4.28;;;10.80;30.90;;;;;;5051753;28;20032;-69
2021/04/08 08:14:42;;;;;;;7.07;4.47;;;10.80;31.00;;;;;;5052853;28;20024;-70
2021/04/08 08:17:16;;;;;;;7.35;4.18;;;10.80;30.30;;;;;;5053065;28;20482;-70
2021/04/08 08:19:44;;;;;;;9.98;4.32;;;10.90;30.80;;;;;;5053074;28;20032;-71
2021/04/08 08:22:33;;;;;;;8.55;3.78;;;10.90;31.10;;;;;;5052726;28;20051;-69
2021/04/08 08:24:59;;;;;;;7.78;3.72;;;10.90;29.50;;;;;;5053023;28;20033;-70
2021/04/08 08:27:44;;;;;;;7.93;3.58;;;11.00;30.20;;;;;;5052500;28;20075;-69
2021/04/08 08:30:15;;;;;;;9.35;3.70;;;11.00;29.20;;;;;;5052726;28;20028;-71
2021/04/08 08:33:08;;;;;;;7.38;3.35;;;11.10;30.00;;;;;;5052753;28;20492;-69
2021/04/08 08:35:34;;;;;;;7.05;3.55;;;11.10;29.10;;;;;;5052258;28;20033;-71
2021/04/08 08:38:12;;;;;;;7.97;3.40;;;11.10;29.60;;;;;;5051657;28;20396;-72
2021/04/08 08:40:39;;;;;;;10.02;3.75;;;11.10;29.40;;;;;;5052575;28;20037;-72
2021/04/08 08:43:06;;;;;;;27.80;14.30;;;11.10;29.20;;;;;;5051195;28;20032;-70
2021/04/08 08:45:34;;;;;;;6.55;3.85;;;11.10;28.70;;;;;;5052334;28;20075;-69
2021/04/08 08:48:07;;;;;;;8.02;3.30;;;11.20;29.20;;;;;;5052302;28;20504;-68
2021/04/08 08:50:35;;;;;;;9.70;3.30;;;11.20;28.50;;;;;;5052228;28;20074;-71
2021/04/08 08:53:01;;;;;;;9.80;3.80;;;11.20;28.20;;;;;;5051238;28;20033;-72
2021/04/08 08:55:27;;;;;;;4.60;2.47;;;11.20;28.60;;;;;;5051931;28;20120;-70
2021/04/08 08:57:55;;;;;;;6.10;3.00;;;11.30;28.40;;;;;;5052552;28;20029;-71
2021/04/08 09:00:24;;;;;;;6.95;3.30;;;11.40;27.80;;;;;;5052376;28;20017;-69
2021/04/08 09:02:51;;;;;;;9.07;2.55;;;11.40;28.20;;;;;;5050918;28;20476;-69
2021/04/08 09:05:19;;;;;;;6.05;2.30;;;11.50;27.50;;;;;;5052606;28;20103;-71
2021/04/08 09:07:48;;;;;;;6.53;2.78;;;11.50;26.80;;;;;;5052223;28;20037;-69
2021/04/08 09:10:22;;;;;;;6.00;2.05;;;11.60;26.90;;;;;;5052419;28;20025;-70
2021/04/08 09:12:49;;;;;;;6.65;2.15;;;11.60;25.70;;;;;;5051207;28;20029;-73
2021/04/08 09:15:14;;;;;;;8.48;2.72;;;11.60;26.10;;;;;;5052140;28;20017;-71
2021/04/08 09:17:46;;;;;;;5.03;2.50;;;11.60;26.10;;;;;;5052543;28;20032;-73
2021/04/08 09:20:19;;;;;;;3.83;1.73;;;11.70;26.00;;;;;;5052270;28;20509;-73
2021/04/08 09:23:18;;;;;;;4.20;1.70;;;11.70;25.10;;;;;;5052247;28;20052;-72
2021/04/08 09:25:56;;;;;;;2.13;1.42;;;11.80;23.80;;;;;;5053380;28;20049;-72
2021/04/08 09:28:25;;;;;;;7.03;1.92;;;11.90;23.50;;;;;;5056394;28;20120;-70
2021/04/08 09:31:09;;;;;;;5.90;2.50;;;11.90;23.80;;;;;;5055831;28;20095;-73
2021/04/08 09:33:55;;;;;;;6.97;1.77;;;12.00;24.60;;;;;;5055492;28;20032;-72
2021/04/08 09:36:24;;;;;;;5.47;2.30;;;12.00;23.10;;;;;;5055329;28;20036;-73
2021/04/08 09:38:51;;;;;;;6.55;1.67;;;12.10;23.60;;;;;;5055293;28;20488;-72
2021/04/08 09:41:42;;;;;;;4.57;1.55;;;12.20;24.20;;;;;;5056170;28;20021;-73
2021/04/08 09:44:11;;;;;;;4.65;1.73;;;12.30;22.90;;;;;;5056045;28;20025;-71
2021/04/08 09:46:42;;;;;;;3.58;1.80;;;12.30;23.10;;;;;;5055129;28;20121;-74
2021/04/08 09:49:09;;;;;;;8.38;2.30;;;12.40;23.80;;;;;;5055305;28;20025;-73
2021/04/08 09:51:46;;;;;;;4.57;1.25;;;12.50;22.80;;;;;;5055147;28;20100;-72
2021/04/08 09:54:16;;;;;;;4.80;1.52;;;12.60;22.30;;;;;;5055774;28;20017;-70
2021/04/08 09:56:54;;;;;;;3.60;1.70;;;12.60;22.70;;;;;;5055111;28;20025;-75
2021/04/08 09:59:21;;;;;;;3.20;1.70;;;12.60;22.60;;;;;;5055038;28;20025;-71
2021/04/08 10:01:47;;;;;;;5.55;1.67;;;12.70;22.10;;;;;;5055321;28;20024;-70
2021/04/08 10:04:25;;;;;;;4.30;1.90;;;12.70;21.70;;;;;;5055615;28;20504;-70
2021/04/08 10:07:05;;;;;;;4.70;2.03;;;12.80;23.20;;;;;;5055021;28;20069;-70
2021/04/08 10:09:31;;;;;;;4.65;2.30;;;12.90;20.90;;;;;;5055267;28;20033;-69
2021/04/08 10:11:57;;;;;;;20.80;13.60;;;13.00;20.80;;;;;;5055208;28;20031;-68
2021/04/08 10:14:28;;;;;;;14.23;8.60;;;13.10;21.10;;;;;;5053940;28;20482;-72
2021/04/08 10:17:09;;;;;;;5.93;2.83;;;13.10;20.40;;;;;;5055117;28;20056;-72
2021/04/08 10:19:41;;;;;;;6.05;2.50;;;13.10;19.90;;;;;;5055119;28;20029;-72
2021/04/08 10:22:09;;;;;;;4.32;2.08;;;13.20;19.70;;;;;;5054817;28;20501;-68
2021/04/08 10:24:40;;;;;;;7.75;2.40;;;13.20;20.00;;;;;;5054794;28;20029;-70
2021/04/08 10:27:24;;;;;;;5.35;1.83;;;13.30;20.50;;;;;;5054779;28;20075;-70
2021/04/08 10:29:50;;;;;;;3.22;1.70;;;13.40;20.80;;;;;;5055169;28;20096;-71
2021/04/08 10:32:38;;;;;;;4.65;1.75;;;13.50;20.10;;;;;;5053464;28;20033;-70
2021/04/08 10:35:04;;;;;;;4.68;1.88;;;13.60;19.80;;;;;;5054870;28;20029;-68
2021/04/08 10:37:30;;;;;;;4.45;2.00;;;13.60;19.80;;;;;;5053268;28;20025;-69
2021/04/08 10:39:56;;;;;;;4.53;1.80;;;13.70;20.40;;;;;;5054793;28;20525;-70
2021/04/08 10:42:22;;;;;;;5.05;1.50;;;13.70;19.20;;;;;;5054578;28;20373;-71
2021/04/08 10:44:55;;;;;;;3.83;1.80;;;13.80;19.20;;;;;;5054620;28;20469;-69
2021/04/08 10:47:26;;;;;;;5.25;1.90;;;13.80;18.60;;;;;;5054393;28;20440;-71
2021/04/08 10:49:57;;;;;;;6.80;1.90;;;13.90;19.40;;;;;;5054660;28;20021;-71
2021/04/08 10:52:29;;;;;;;5.57;2.13;;;14.00;19.20;;;;;;5054560;28;20029;-71
2021/04/08 10:54:57;;;;;;;5.60;2.33;;;14.10;19.20;;;;;;5054284;28;20029;-70
2021/04/08 10:57:25;;;;;;;3.80;1.85;;;14.20;19.70;;;;;;5054248;28;20021;-71
2021/04/08 10:59:51;;;;;;;4.40;2.13;;;14.40;20.20;;;;;;5054101;28;20024;-69
2021/04/08 11:02:30;;;;;;;5.65;1.73;;;14.50;19.40;;;;;;5054250;28;20071;-70
2021/04/08 11:04:58;;;;;;;3.65;1.58;;;14.50;18.90;;;;;;5054365;28;20051;-69
2021/04/08 11:07:26;;;;;;;3.70;1.80;;;14.50;18.70;;;;;;5054180;28;20156;-71
2021/04/08 11:09:53;;;;;;;5.07;1.48;;;14.60;18.60;;;;;;5054151;28;20032;-69
2021/04/08 11:12:23;;;;;;;5.45;1.90;;;14.60;18.20;;;;;;5053849;28;20032;-69
2021/04/08 11:14:55;;;;;;;2.40;1.50;;;14.60;18.90;;;;;;5054662;28;20535;-68
2021/04/08 11:17:23;;;;;;;4.25;1.58;;;14.70;18.90;;;;;;5052732;28;20033;-68
2021/04/08 11:19:49;;;;;;;16.20;2.10;;;14.80;18.80;;;;;;5053970;28;20017;-69
2021/04/08 11:22:17;;;;;;;5.15;2.17;;;15.00;19.00;;;;;;5053156;28;20045;-69
2021/04/08 11:24:46;;;;;;;5.95;2.00;;;15.10;18.70;;;;;;5052235;28;20401;-68
2021/04/08 11:27:11;;;;;;;15.25;10.38;;;15.20;18.10;;;;;;5053657;28;20501;-69
2021/04/08 11:29:39;;;;;;;18.95;12.32;;;15.20;19.10;;;;;;5053755;28;20056;-71
2021/04/08 11:32:09;;;;;;;5.10;2.00;;;15.30;18.60;;;;;;5053632;28;20029;-67
2021/04/08 11:34:46;;;;;;;6.40;1.90;;;15.30;18.20;;;;;;5053547;28;20445;-68
2021/04/08 11:37:14;;;;;;;5.25;2.15;;;15.30;18.50;;;;;;5053614;28;20369;-68
2021/04/08 11:39:42;;;;;;;4.50;1.98;;;15.30;18.20;;;;;;5053530;28;20052;-72
2021/04/08 11:42:21;;;;;;;3.17;1.50;;;15.40;18.20;;;;;;5053609;28;20025;-69
2021/04/08 11:44:49;;;;;;;4.18;1.70;;;15.50;18.50;;;;;;5053698;28;20386;-68
2021/04/08 11:47:20;;;;;;;2.63;1.52;;;15.50;17.40;;;;;;5053523;28;20032;-69
2021/04/08 11:49:51;;;;;;;3.35;1.77;;;15.50;17.80;;;;;;5051755;28;20123;-71
2021/04/08 11:52:20;;;;;;;3.78;1.55;;;15.50;18.30;;;;;;5053388;28;20036;-68
2021/04/08 11:55:06;;;;;;;9.23;1.50;;;15.60;18.00;;;;;;5053396;28;20016;-68
2021/04/08 11:57:33;;;;;;;6.93;1.77;;;15.70;17.30;;;;;;5053181;28;20474;-70
2021/04/08 12:00:06;;;;;;;4.43;1.40;;;15.80;18.30;;;;;;5053578;28;20032;-68
2021/04/08 12:02:35;;;;;;;2.55;1.30;;;15.90;18.00;;;;;;5053413;28;20017;-70
2021/04/08 12:05:06;;;;;;;4.38;1.42;;;16.00;17.80;;;;;;5051664;28;20029;-69
2021/04/08 12:07:40;;;;;;;6.72;1.80;;;16.00;17.70;;;;;;5052812;28;20024;-70
2021/04/08 12:10:31;;;;;;;4.85;1.55;;;16.00;17.70;;;;;;5053020;28;20108;-72
2021/04/08 12:13:00;;;;;;;3.55;1.65;;;16.10;17.00;;;;;;5053406;28;20031;-69
2021/04/08 12:15:32;;;;;;;5.93;1.80;;;16.20;17.30;;;;;;5053541;28;20086;-69
2021/04/08 12:17:57;;;;;;;3.20;1.30;;;16.20;17.40;;;;;;5053416;28;20036;-68
2021/04/08 12:20:24;;;;;;;2.60;1.40;;;16.20;17.10;;;;;;5053269;28;20474;-72
2021/04/08 12:22:51;;;;;;;3.50;1.63;;;16.20;16.20;;;;;;5052926;28;20084;-71
2021/04/08 12:25:19;;;;;;;3.78;1.55;;;16.20;16.30;;;;;;5053034;28;20482;-70
2021/04/08 12:27:55;;;;;;;10.07;2.22;;;16.30;16.50;;;;;;5052999;28;20493;-69
2021/04/08 12:30:22;;;;;;;8.80;2.53;;;16.40;16.80;;;;;;5051501;28;20150;-70
2021/04/08 12:32:50;;;;;;;16.33;2.95;;;16.40;18.90;;;;;;5053108;28;20389;-69
2021/04/08 12:35:16;;;;;;;9.18;3.00;;;16.40;20.90;;;;;;5052906;28;20021;-69
2021/04/08 12:37:41;;;;;;;7.82;3.10;;;16.30;21.60;;;;;;5053180;28;20096;-68
2021/04/08 12:40:07;;;;;;;5.82;2.92;;;16.30;21.80;;;;;;5052717;28;20017;-70
2021/04/08 12:42:33;;;;;;;5.97;3.30;;;16.30;22.30;;;;;;5051254;28;20093;-68
2021/04/08 12:44:59;;;;;;;9.73;3.42;;;16.30;22.60;;;;;;5051320;28;20036;-67
2021/04/08 12:47:26;;;;;;;7.55;3.40;;;16.30;22.70;;;;;;5052562;28;20041;-67
2021/04/08 12:49:52;;;;;;;9.13;3.10;;;16.40;22.80;;;;;;5052742;28;20468;-68
2021/04/08 12:52:18;;;;;;;8.52;3.33;;;16.30;22.90;;;;;;5052447;28;20067;-69
2021/04/08 12:54:43;;;;;;;6.10;3.28;;;16.30;23.00;;;;;;5052732;28;20104;-68
2021/04/08 12:57:09;;;;;;;8.48;2.75;;;16.40;23.10;;;;;;5052758;28;20509;-70
2021/04/08 12:59:35;;;;;;;5.78;3.15;;;16.40;23.00;;;;;;5052860;28;20108;-69
2021/04/08 13:02:01;;;;;;;4.88;3.00;;;16.40;23.10;;;;;;5054975;28;20021;-69